Benchland, Montana
Current Conditions -  °F | °C
As of 6:54 PM on Thursday 20 Nov 2014 (Local Time) from KLWT Reporting Station
Few Clouds Few Clouds  
Wind Chill: 34°   Ceiling: Unl
Heat Index: 42°   Visibility: 10mi
Dew Point: 26°   Wind: 16mph
Humidity: 53%   Direction: 240°WSW
Pressure: 29.79"   Gusts: NA
Location:  47.1096°N, 109.884°W
Report Text: KLWT 210154Z AUTO 24014KT 10SM FEW075 06/M03 A2979 RMK AO2 SLP109 T00561033
Loading
Personal Weather Stations






























Interactive Weather Map New forecast layout! Learn more

10-Day Weather Forecast

Advertisements
Track Severe Weather on mobile